sensor_id;sensor_type;location;lat;lon;timestamp;P1;durP1;ratioP1;P2;durP2;ratioP2
29214;SDS011;16252;49.816;7.964;2023-12-20T00:00:58;2.47;;;1.98;;
29214;SDS011;16252;49.816;7.964;2023-12-20T00:03:23;2.80;;;1.88;;
29214;SDS011;16252;49.816;7.964;2023-12-20T00:05:49;3.60;;;2.28;;
29214;SDS011;16252;49.816;7.964;2023-12-20T00:08:14;2.50;;;2.13;;
29214;SDS011;16252;49.816;7.964;2023-12-20T00:10:40;2.83;;;2.45;;
29214;SDS011;16252;49.816;7.964;2023-12-20T00:13:05;2.40;;;2.20;;
29214;SDS011;16252;49.816;7.964;2023-12-20T00:15:32;2.58;;;2.00;;
29214;SDS011;16252;49.816;7.964;2023-12-20T00:17:58;2.45;;;1.98;;
29214;SDS011;16252;49.816;7.964;2023-12-20T00:20:23;2.35;;;1.85;;
29214;SDS011;16252;49.816;7.964;2023-12-20T00:22:49;1.98;;;1.83;;
29214;SDS011;16252;49.816;7.964;2023-12-20T00:25:14;2.20;;;1.90;;
29214;SDS011;16252;49.816;7.964;2023-12-20T00:27:39;2.30;;;2.05;;
29214;SDS011;16252;49.816;7.964;2023-12-20T00:30:05;3.20;;;2.17;;
29214;SDS011;16252;49.816;7.964;2023-12-20T00:32:30;2.45;;;1.80;;
29214;SDS011;16252;49.816;7.964;2023-12-20T00:34:56;2.83;;;2.17;;
29214;SDS011;16252;49.816;7.964;2023-12-20T00:37:21;2.78;;;2.03;;
29214;SDS011;16252;49.816;7.964;2023-12-20T00:39:46;2.05;;;1.80;;
29214;SDS011;16252;49.816;7.964;2023-12-20T00:42:12;2.55;;;2.10;;
29214;SDS011;16252;49.816;7.964;2023-12-20T00:44:37;2.58;;;2.00;;
29214;SDS011;16252;49.816;7.964;2023-12-20T00:47:02;2.33;;;1.90;;
29214;SDS011;16252;49.816;7.964;2023-12-20T00:49:28;2.10;;;1.67;;
29214;SDS011;16252;49.816;7.964;2023-12-20T00:51:53;1.70;;;1.60;;
29214;SDS011;16252;49.816;7.964;2023-12-20T00:54:18;2.10;;;1.90;;
29214;SDS011;16252;49.816;7.964;2023-12-20T00:56:44;1.50;;;1.40;;
29214;SDS011;16252;49.816;7.964;2023-12-20T00:59:09;1.52;;;1.40;;
29214;SDS011;16252;49.816;7.964;2023-12-20T01:01:34;2.15;;;1.65;;
29214;SDS011;16252;49.816;7.964;2023-12-20T01:04:00;1.83;;;1.60;;
29214;SDS011;16252;49.816;7.964;2023-12-20T01:06:25;2.08;;;1.75;;
29214;SDS011;16252;49.816;7.964;2023-12-20T01:08:50;1.40;;;1.30;;
29214;SDS011;16252;49.816;7.964;2023-12-20T01:11:15;1.80;;;1.60;;
29214;SDS011;16252;49.816;7.964;2023-12-20T01:13:41;2.00;;;1.70;;
29214;SDS011;16252;49.816;7.964;2023-12-20T01:16:06;1.92;;;1.70;;
29214;SDS011;16252;49.816;7.964;2023-12-20T01:18:35;1.48;;;1.38;;
29214;SDS011;16252;49.816;7.964;2023-12-20T01:21:03;1.50;;;1.40;;
29214;SDS011;16252;49.816;7.964;2023-12-20T01:23:29;1.35;;;1.25;;
29214;SDS011;16252;49.816;7.964;2023-12-20T01:25:54;2.13;;;1.50;;
29214;SDS011;16252;49.816;7.964;2023-12-20T01:28:20;1.70;;;1.35;;
29214;SDS011;16252;49.816;7.964;2023-12-20T01:30:45;1.65;;;1.50;;
29214;SDS011;16252;49.816;7.964;2023-12-20T01:33:10;2.08;;;1.70;;
29214;SDS011;16252;49.816;7.964;2023-12-20T01:35:36;1.58;;;1.48;;
29214;SDS011;16252;49.816;7.964;2023-12-20T01:38:02;1.45;;;1.35;;
29214;SDS011;16252;49.816;7.964;2023-12-20T01:40:27;2.53;;;1.83;;
29214;SDS011;16252;49.816;7.964;2023-12-20T01:43:07;1.50;;;1.40;;
29214;SDS011;16252;49.816;7.964;2023-12-20T01:45:33;1.67;;;1.50;;
29214;SDS011;16252;49.816;7.964;2023-12-20T01:47:59;4.45;;;2.03;;
29214;SDS011;16252;49.816;7.964;2023-12-20T01:50:24;2.30;;;1.83;;
29214;SDS011;16252;49.816;7.964;2023-12-20T01:52:50;3.10;;;1.92;;
29214;SDS011;16252;49.816;7.964;2023-12-20T01:55:20;2.65;;;2.03;;
29214;SDS011;16252;49.816;7.964;2023-12-20T01:57:45;3.08;;;2.33;;
29214;SDS011;16252;49.816;7.964;2023-12-20T02:00:12;5.55;;;2.63;;
29214;SDS011;16252;49.816;7.964;2023-12-20T02:02:39;3.10;;;2.28;;
29214;SDS011;16252;49.816;7.964;2023-12-20T02:05:05;3.15;;;1.88;;
29214;SDS011;16252;49.816;7.964;2023-12-20T02:07:32;3.33;;;2.20;;
29214;SDS011;16252;49.816;7.964;2023-12-20T02:09:58;2.47;;;1.90;;
29214;SDS011;16252;49.816;7.964;2023-12-20T02:12:23;3.25;;;2.05;;
29214;SDS011;16252;49.816;7.964;2023-12-20T02:14:49;1.90;;;1.52;;
29214;SDS011;16252;49.816;7.964;2023-12-20T02:17:15;2.75;;;1.83;;
29214;SDS011;16252;49.816;7.964;2023-12-20T02:19:40;2.20;;;1.50;;
29214;SDS011;16252;49.816;7.964;2023-12-20T02:22:07;1.90;;;1.55;;
29214;SDS011;16252;49.816;7.964;2023-12-20T02:24:32;1.30;;;1.20;;
29214;SDS011;16252;49.816;7.964;2023-12-20T02:26:57;1.38;;;1.27;;
29214;SDS011;16252;49.816;7.964;2023-12-20T02:29:23;1.92;;;1.40;;
29214;SDS011;16252;49.816;7.964;2023-12-20T02:31:48;1.70;;;1.52;;
29214;SDS011;16252;49.816;7.964;2023-12-20T02:34:14;2.15;;;1.45;;
29214;SDS011;16252;49.816;7.964;2023-12-20T02:36:39;1.30;;;1.20;;
29214;SDS011;16252;49.816;7.964;2023-12-20T02:39:04;1.50;;;1.40;;
29214;SDS011;16252;49.816;7.964;2023-12-20T02:41:30;2.30;;;1.30;;
29214;SDS011;16252;49.816;7.964;2023-12-20T02:43:55;2.50;;;1.42;;
29214;SDS011;16252;49.816;7.964;2023-12-20T02:46:20;1.30;;;1.20;;
29214;SDS011;16252;49.816;7.964;2023-12-20T02:48:45;8.70;;;3.00;;
29214;SDS011;16252;49.816;7.964;2023-12-20T02:51:12;12.63;;;4.57;;
29214;SDS011;16252;49.816;7.964;2023-12-20T02:53:37;9.35;;;4.53;;
29214;SDS011;16252;49.816;7.964;2023-12-20T02:56:02;6.10;;;3.22;;
29214;SDS011;16252;49.816;7.964;2023-12-20T02:58:28;3.78;;;2.13;;
29214;SDS011;16252;49.816;7.964;2023-12-20T03:00:53;4.22;;;2.45;;
29214;SDS011;16252;49.816;7.964;2023-12-20T03:03:19;3.45;;;2.10;;
29214;SDS011;16252;49.816;7.964;2023-12-20T03:05:45;3.67;;;2.08;;
29214;SDS011;16252;49.816;7.964;2023-12-20T03:08:11;3.10;;;2.42;;
29214;SDS011;16252;49.816;7.964;2023-12-20T03:10:36;2.25;;;1.70;;
29214;SDS011;16252;49.816;7.964;2023-12-20T03:13:01;2.00;;;1.77;;
29214;SDS011;16252;49.816;7.964;2023-12-20T03:15:26;1.63;;;1.23;;
29214;SDS011;16252;49.816;7.964;2023-12-20T03:17:52;1.80;;;1.20;;
29214;SDS011;16252;49.816;7.964;2023-12-20T03:20:17;1.35;;;1.08;;
29214;SDS011;16252;49.816;7.964;2023-12-20T03:22:42;1.40;;;1.30;;
29214;SDS011;16252;49.816;7.964;2023-12-20T03:25:08;1.95;;;1.45;;
29214;SDS011;16252;49.816;7.964;2023-12-20T03:27:33;3.55;;;1.40;;
29214;SDS011;16252;49.816;7.964;2023-12-20T03:29:58;1.50;;;1.40;;
29214;SDS011;16252;49.816;7.964;2023-12-20T03:32:23;1.67;;;1.40;;
29214;SDS011;16252;49.816;7.964;2023-12-20T03:34:49;4.45;;;2.42;;
29214;SDS011;16252;49.816;7.964;2023-12-20T03:37:14;2.70;;;1.90;;
29214;SDS011;16252;49.816;7.964;2023-12-20T03:39:39;2.08;;;1.85;;
29214;SDS011;16252;49.816;7.964;2023-12-20T03:42:05;2.85;;;2.17;;
29214;SDS011;16252;49.816;7.964;2023-12-20T03:44:30;1.80;;;1.65;;
29214;SDS011;16252;49.816;7.964;2023-12-20T03:46:55;2.58;;;1.83;;
29214;SDS011;16252;49.816;7.964;2023-12-20T03:49:21;1.60;;;1.45;;
29214;SDS011;16252;49.816;7.964;2023-12-20T03:51:46;2.25;;;1.58;;
29214;SDS011;16252;49.816;7.964;2023-12-20T03:54:12;2.47;;;1.60;;
29214;SDS011;16252;49.816;7.964;2023-12-20T03:56:37;1.83;;;1.67;;
29214;SDS011;16252;49.816;7.964;2023-12-20T03:59:02;2.00;;;1.77;;
29214;SDS011;16252;49.816;7.964;2023-12-20T04:01:28;2.28;;;1.70;;
29214;SDS011;16252;49.816;7.964;2023-12-20T04:03:53;2.42;;;1.70;;
29214;SDS011;16252;49.816;7.964;2023-12-20T04:06:19;3.40;;;1.67;;
29214;SDS011;16252;49.816;7.964;2023-12-20T04:08:44;1.75;;;1.63;;
29214;SDS011;16252;49.816;7.964;2023-12-20T04:11:10;3.42;;;2.08;;
29214;SDS011;16252;49.816;7.964;2023-12-20T04:13:35;3.75;;;2.65;;
29214;SDS011;16252;49.816;7.964;2023-12-20T04:16:00;4.13;;;2.28;;
29214;SDS011;16252;49.816;7.964;2023-12-20T04:18:26;4.40;;;2.47;;
29214;SDS011;16252;49.816;7.964;2023-12-20T04:20:51;6.13;;;3.17;;
29214;SDS011;16252;49.816;7.964;2023-12-20T04:23:16;5.70;;;3.65;;
29214;SDS011;16252;49.816;7.964;2023-12-20T04:25:41;5.38;;;3.28;;
29214;SDS011;16252;49.816;7.964;2023-12-20T04:28:07;5.00;;;3.35;;
29214;SDS011;16252;49.816;7.964;2023-12-20T04:30:33;4.07;;;2.75;;
29214;SDS011;16252;49.816;7.964;2023-12-20T04:32:58;4.60;;;2.30;;
29214;SDS011;16252;49.816;7.964;2023-12-20T04:35:23;2.67;;;1.70;;
29214;SDS011;16252;49.816;7.964;2023-12-20T04:37:48;2.28;;;1.80;;
29214;SDS011;16252;49.816;7.964;2023-12-20T04:40:14;2.08;;;1.60;;
29214;SDS011;16252;49.816;7.964;2023-12-20T04:42:40;1.48;;;1.20;;
29214;SDS011;16252;49.816;7.964;2023-12-20T04:45:05;1.35;;;1.20;;
29214;SDS011;16252;49.816;7.964;2023-12-20T04:47:31;2.08;;;1.20;;
29214;SDS011;16252;49.816;7.964;2023-12-20T04:49:56;1.65;;;1.40;;
29214;SDS011;16252;49.816;7.964;2023-12-20T04:52:21;1.45;;;1.10;;
29214;SDS011;16252;49.816;7.964;2023-12-20T04:54:46;1.20;;;1.10;;
29214;SDS011;16252;49.816;7.964;2023-12-20T04:57:12;2.40;;;1.40;;
29214;SDS011;16252;49.816;7.964;2023-12-20T04:59:37;2.40;;;1.52;;
29214;SDS011;16252;49.816;7.964;2023-12-20T05:02:02;4.22;;;1.88;;
29214;SDS011;16252;49.816;7.964;2023-12-20T05:04:28;3.65;;;1.70;;
29214;SDS011;16252;49.816;7.964;2023-12-20T05:06:53;2.50;;;1.63;;
29214;SDS011;16252;49.816;7.964;2023-12-20T05:09:18;1.85;;;1.50;;
29214;SDS011;16252;49.816;7.964;2023-12-20T05:11:43;2.22;;;1.63;;
29214;SDS011;16252;49.816;7.964;2023-12-20T05:14:09;3.75;;;1.73;;
29214;SDS011;16252;49.816;7.964;2023-12-20T05:16:34;4.85;;;2.03;;
29214;SDS011;16252;49.816;7.964;2023-12-20T05:18:59;4.78;;;2.45;;
29214;SDS011;16252;49.816;7.964;2023-12-20T05:21:27;3.25;;;2.22;;
29214;SDS011;16252;49.816;7.964;2023-12-20T05:23:52;2.25;;;1.55;;
29214;SDS011;16252;49.816;7.964;2023-12-20T05:26:17;3.90;;;1.63;;
29214;SDS011;16252;49.816;7.964;2023-12-20T05:28:43;4.93;;;1.60;;
29214;SDS011;16252;49.816;7.964;2023-12-20T05:31:08;2.17;;;1.42;;
29214;SDS011;16252;49.816;7.964;2023-12-20T05:33:34;2.92;;;1.25;;
29214;SDS011;16252;49.816;7.964;2023-12-20T05:35:59;3.55;;;1.77;;
29214;SDS011;16252;49.816;7.964;2023-12-20T05:38:24;1.58;;;1.20;;
29214;SDS011;16252;49.816;7.964;2023-12-20T05:40:50;1.95;;;1.10;;
29214;SDS011;16252;49.816;7.964;2023-12-20T05:43:15;1.77;;;1.20;;
29214;SDS011;16252;49.816;7.964;2023-12-20T05:45:40;1.90;;;1.20;;
29214;SDS011;16252;49.816;7.964;2023-12-20T05:48:06;2.13;;;1.30;;
29214;SDS011;16252;49.816;7.964;2023-12-20T05:50:31;1.85;;;1.30;;
29214;SDS011;16252;49.816;7.964;2023-12-20T05:52:56;2.03;;;1.48;;
29214;SDS011;16252;49.816;7.964;2023-12-20T05:55:22;2.03;;;1.73;;
29214;SDS011;16252;49.816;7.964;2023-12-20T05:57:47;2.38;;;1.60;;
29214;SDS011;16252;49.816;7.964;2023-12-20T06:00:13;4.57;;;1.90;;
29214;SDS011;16252;49.816;7.964;2023-12-20T06:02:39;5.55;;;2.55;;
29214;SDS011;16252;49.816;7.964;2023-12-20T06:05:05;4.70;;;2.10;;
29214;SDS011;16252;49.816;7.964;2023-12-20T06:07:30;5.13;;;1.70;;
29214;SDS011;16252;49.816;7.964;2023-12-20T06:09:58;2.15;;;1.65;;
29214;SDS011;16252;49.816;7.964;2023-12-20T06:12:24;3.10;;;1.80;;
29214;SDS011;16252;49.816;7.964;2023-12-20T06:14:51;7.43;;;1.67;;
29214;SDS011;16252;49.816;7.964;2023-12-20T06:17:16;2.65;;;1.35;;
29214;SDS011;16252;49.816;7.964;2023-12-20T06:19:42;2.50;;;1.30;;
29214;SDS011;16252;49.816;7.964;2023-12-20T06:22:09;1.77;;;1.17;;
29214;SDS011;16252;49.816;7.964;2023-12-20T06:24:35;1.80;;;1.30;;
29214;SDS011;16252;49.816;7.964;2023-12-20T06:27:01;3.25;;;1.48;;
29214;SDS011;16252;49.816;7.964;2023-12-20T06:29:29;2.58;;;1.13;;
29214;SDS011;16252;49.816;7.964;2023-12-20T06:31:55;1.92;;;1.10;;
29214;SDS011;16252;49.816;7.964;2023-12-20T06:34:24;3.92;;;1.45;;
29214;SDS011;16252;49.816;7.964;2023-12-20T06:36:51;4.25;;;1.40;;
29214;SDS011;16252;49.816;7.964;2023-12-20T06:39:17;1.55;;;1.02;;
29214;SDS011;16252;49.816;7.964;2023-12-20T06:41:42;2.75;;;1.65;;
29214;SDS011;16252;49.816;7.964;2023-12-20T06:44:08;1.95;;;1.40;;
29214;SDS011;16252;49.816;7.964;2023-12-20T06:46:33;2.90;;;1.50;;
29214;SDS011;16252;49.816;7.964;2023-12-20T06:48:59;4.63;;;1.55;;
29214;SDS011;16252;49.816;7.964;2023-12-20T06:51:44;3.67;;;1.20;;
29214;SDS011;16252;49.816;7.964;2023-12-20T06:54:09;3.45;;;2.20;;
29214;SDS011;16252;49.816;7.964;2023-12-20T06:56:34;3.17;;;1.95;;
29214;SDS011;16252;49.816;7.964;2023-12-20T06:59:00;4.70;;;3.13;;
29214;SDS011;16252;49.816;7.964;2023-12-20T07:01:25;3.28;;;2.40;;
29214;SDS011;16252;49.816;7.964;2023-12-20T07:03:50;3.63;;;2.20;;
29214;SDS011;16252;49.816;7.964;2023-12-20T07:06:15;3.38;;;1.98;;
29214;SDS011;16252;49.816;7.964;2023-12-20T07:08:42;2.60;;;1.77;;
29214;SDS011;16252;49.816;7.964;2023-12-20T07:11:07;4.30;;;1.58;;
29214;SDS011;16252;49.816;7.964;2023-12-20T07:13:32;3.50;;;1.73;;
29214;SDS011;16252;49.816;7.964;2023-12-20T07:15:58;4.65;;;2.00;;
29214;SDS011;16252;49.816;7.964;2023-12-20T07:18:23;2.63;;;1.95;;
29214;SDS011;16252;49.816;7.964;2023-12-20T07:20:48;5.43;;;2.05;;
29214;SDS011;16252;49.816;7.964;2023-12-20T07:23:14;3.70;;;1.73;;
29214;SDS011;16252;49.816;7.964;2023-12-20T07:25:39;3.42;;;1.60;;
29214;SDS011;16252;49.816;7.964;2023-12-20T07:28:04;5.97;;;1.98;;
29214;SDS011;16252;49.816;7.964;2023-12-20T07:30:30;2.25;;;1.55;;
29214;SDS011;16252;49.816;7.964;2023-12-20T07:32:55;3.42;;;2.10;;
29214;SDS011;16252;49.816;7.964;2023-12-20T07:35:22;3.72;;;2.47;;
29214;SDS011;16252;49.816;7.964;2023-12-20T07:37:48;8.43;;;2.60;;
29214;SDS011;16252;49.816;7.964;2023-12-20T07:40:13;2.90;;;1.70;;
29214;SDS011;16252;49.816;7.964;2023-12-20T07:42:39;3.50;;;2.17;;
29214;SDS011;16252;49.816;7.964;2023-12-20T07:45:04;3.72;;;1.88;;
29214;SDS011;16252;49.816;7.964;2023-12-20T07:47:30;5.25;;;1.95;;
29214;SDS011;16252;49.816;7.964;2023-12-20T07:49:55;5.32;;;2.25;;
29214;SDS011;16252;49.816;7.964;2023-12-20T07:52:20;5.47;;;1.70;;
29214;SDS011;16252;49.816;7.964;2023-12-20T07:54:47;4.88;;;2.65;;
29214;SDS011;16252;49.816;7.964;2023-12-20T07:57:13;5.57;;;1.92;;
29214;SDS011;16252;49.816;7.964;2023-12-20T07:59:38;3.47;;;2.20;;
29214;SDS011;16252;49.816;7.964;2023-12-20T08:02:03;5.78;;;2.60;;
29214;SDS011;16252;49.816;7.964;2023-12-20T08:04:29;6.57;;;2.28;;
29214;SDS011;16252;49.816;7.964;2023-12-20T08:06:54;5.22;;;2.03;;
29214;SDS011;16252;49.816;7.964;2023-12-20T08:09:19;4.32;;;2.15;;
29214;SDS011;16252;49.816;7.964;2023-12-20T08:11:45;3.25;;;1.95;;
29214;SDS011;16252;49.816;7.964;2023-12-20T08:14:11;6.20;;;2.50;;
29214;SDS011;16252;49.816;7.964;2023-12-20T08:16:36;3.03;;;1.63;;
29214;SDS011;16252;49.816;7.964;2023-12-20T08:19:02;3.72;;;2.00;;
29214;SDS011;16252;49.816;7.964;2023-12-20T08:21:27;5.93;;;3.05;;
29214;SDS011;16252;49.816;7.964;2023-12-20T08:23:52;5.05;;;2.60;;
29214;SDS011;16252;49.816;7.964;2023-12-20T08:26:20;5.45;;;2.90;;
29214;SDS011;16252;49.816;7.964;2023-12-20T08:28:47;5.57;;;2.22;;
29214;SDS011;16252;49.816;7.964;2023-12-20T08:31:13;6.47;;;2.42;;
29214;SDS011;16252;49.816;7.964;2023-12-20T08:33:40;4.25;;;2.35;;
29214;SDS011;16252;49.816;7.964;2023-12-20T08:36:05;5.90;;;2.05;;
29214;SDS011;16252;49.816;7.964;2023-12-20T08:38:31;5.82;;;2.72;;
29214;SDS011;16252;49.816;7.964;2023-12-20T08:40:56;6.00;;;2.45;;
29214;SDS011;16252;49.816;7.964;2023-12-20T08:43:22;4.70;;;2.25;;
29214;SDS011;16252;49.816;7.964;2023-12-20T08:45:47;7.18;;;2.97;;
29214;SDS011;16252;49.816;7.964;2023-12-20T08:48:12;6.00;;;2.80;;
29214;SDS011;16252;49.816;7.964;2023-12-20T08:50:37;4.93;;;2.72;;
29214;SDS011;16252;49.816;7.964;2023-12-20T08:53:03;6.78;;;2.80;;
29214;SDS011;16252;49.816;7.964;2023-12-20T08:55:29;6.22;;;2.30;;
29214;SDS011;16252;49.816;7.964;2023-12-20T08:57:55;11.40;;;2.17;;
29214;SDS011;16252;49.816;7.964;2023-12-20T09:00:21;6.75;;;2.33;;
29214;SDS011;16252;49.816;7.964;2023-12-20T09:02:49;7.20;;;2.70;;
29214;SDS011;16252;49.816;7.964;2023-12-20T09:05:15;4.82;;;2.42;;
29214;SDS011;16252;49.816;7.964;2023-12-20T09:07:40;7.18;;;3.30;;
29214;SDS011;16252;49.816;7.964;2023-12-20T09:10:05;7.72;;;2.78;;
29214;SDS011;16252;49.816;7.964;2023-12-20T09:12:31;6.22;;;3.22;;
29214;SDS011;16252;49.816;7.964;2023-12-20T09:14:56;4.80;;;2.65;;
29214;SDS011;16252;49.816;7.964;2023-12-20T09:17:22;6.68;;;2.90;;
29214;SDS011;16252;49.816;7.964;2023-12-20T09:19:48;8.10;;;3.10;;
29214;SDS011;16252;49.816;7.964;2023-12-20T09:22:13;7.25;;;3.78;;
29214;SDS011;16252;49.816;7.964;2023-12-20T09:24:38;8.82;;;4.43;;
29214;SDS011;16252;49.816;7.964;2023-12-20T09:27:04;8.68;;;3.85;;
29214;SDS011;16252;49.816;7.964;2023-12-20T09:29:30;8.90;;;3.97;;
29214;SDS011;16252;49.816;7.964;2023-12-20T09:31:56;7.22;;;3.80;;
29214;SDS011;16252;49.816;7.964;2023-12-20T09:34:22;9.13;;;3.00;;
29214;SDS011;16252;49.816;7.964;2023-12-20T09:36:48;7.05;;;3.15;;
29214;SDS011;16252;49.816;7.964;2023-12-20T09:39:14;6.63;;;3.20;;
29214;SDS011;16252;49.816;7.964;2023-12-20T09:41:42;7.53;;;3.58;;
29214;SDS011;16252;49.816;7.964;2023-12-20T09:44:11;7.20;;;2.97;;
29214;SDS011;16252;49.816;7.964;2023-12-20T09:46:40;11.23;;;5.00;;
29214;SDS011;16252;49.816;7.964;2023-12-20T09:49:08;8.70;;;3.95;;
29214;SDS011;16252;49.816;7.964;2023-12-20T09:51:34;7.78;;;3.90;;
29214;SDS011;16252;49.816;7.964;2023-12-20T09:53:59;6.45;;;3.50;;
29214;SDS011;16252;49.816;7.964;2023-12-20T09:56:27;6.88;;;2.63;;
29214;SDS011;16252;49.816;7.964;2023-12-20T09:58:54;7.22;;;3.42;;
29214;SDS011;16252;49.816;7.964;2023-12-20T10:01:19;10.27;;;3.70;;
29214;SDS011;16252;49.816;7.964;2023-12-20T10:03:46;5.55;;;2.97;;
29214;SDS011;16252;49.816;7.964;2023-12-20T10:06:11;3.72;;;2.20;;
29214;SDS011;16252;49.816;7.964;2023-12-20T10:08:36;5.32;;;2.40;;
29214;SDS011;16252;49.816;7.964;2023-12-20T10:11:02;5.65;;;2.50;;
29214;SDS011;16252;49.816;7.964;2023-12-20T10:13:29;4.47;;;2.38;;
29214;SDS011;16252;49.816;7.964;2023-12-20T10:15:54;5.95;;;2.60;;
29214;SDS011;16252;49.816;7.964;2023-12-20T10:18:20;3.63;;;2.00;;
29214;SDS011;16252;49.816;7.964;2023-12-20T10:20:46;4.30;;;2.60;;
29214;SDS011;16252;49.816;7.964;2023-12-20T10:23:12;6.05;;;1.95;;
29214;SDS011;16252;49.816;7.964;2023-12-20T10:25:38;6.00;;;2.47;;
29214;SDS011;16252;49.816;7.964;2023-12-20T10:28:14;4.10;;;2.20;;
29214;SDS011;16252;49.816;7.964;2023-12-20T10:30:44;4.97;;;1.63;;
29214;SDS011;16252;49.816;7.964;2023-12-20T10:33:10;6.45;;;2.13;;
29214;SDS011;16252;49.816;7.964;2023-12-20T10:35:36;3.33;;;2.15;;
29214;SDS011;16252;49.816;7.964;2023-12-20T10:38:05;5.53;;;2.60;;
29214;SDS011;16252;49.816;7.964;2023-12-20T10:40:32;6.47;;;2.30;;
29214;SDS011;16252;49.816;7.964;2023-12-20T10:42:59;5.20;;;2.05;;
29214;SDS011;16252;49.816;7.964;2023-12-20T10:45:27;6.13;;;2.50;;
29214;SDS011;16252;49.816;7.964;2023-12-20T10:47:52;4.25;;;1.90;;
29214;SDS011;16252;49.816;7.964;2023-12-20T10:50:18;5.05;;;1.90;;
29214;SDS011;16252;49.816;7.964;2023-12-20T10:52:45;4.18;;;2.35;;
29214;SDS011;16252;49.816;7.964;2023-12-20T10:55:12;4.97;;;1.75;;
29214;SDS011;16252;49.816;7.964;2023-12-20T10:57:37;3.97;;;1.95;;
29214;SDS011;16252;49.816;7.964;2023-12-20T11:00:03;5.40;;;2.00;;
29214;SDS011;16252;49.816;7.964;2023-12-20T11:02:36;4.05;;;1.70;;
29214;SDS011;16252;49.816;7.964;2023-12-20T11:07:50;3.38;;;1.40;;
29214;SDS011;16252;49.816;7.964;2023-12-20T11:10:23;2.80;;;1.45;;
29214;SDS011;16252;49.816;7.964;2023-12-20T11:12:55;4.32;;;1.85;;
29214;SDS011;16252;49.816;7.964;2023-12-20T11:15:28;5.05;;;2.00;;
29214;SDS011;16252;49.816;7.964;2023-12-20T11:17:57;3.33;;;1.73;;
29214;SDS011;16252;49.816;7.964;2023-12-20T11:20:24;5.70;;;2.00;;
29214;SDS011;16252;49.816;7.964;2023-12-20T11:22:59;4.25;;;1.85;;
29214;SDS011;16252;49.816;7.964;2023-12-20T11:25:25;5.90;;;1.80;;
29214;SDS011;16252;49.816;7.964;2023-12-20T11:28:07;4.90;;;2.35;;
29214;SDS011;16252;49.816;7.964;2023-12-20T11:30:47;6.18;;;2.13;;
29214;SDS011;16252;49.816;7.964;2023-12-20T11:33:15;5.47;;;2.40;;
29214;SDS011;16252;49.816;7.964;2023-12-20T11:35:41;5.68;;;1.80;;
29214;SDS011;16252;49.816;7.964;2023-12-20T11:38:08;4.10;;;1.75;;
29214;SDS011;16252;49.816;7.964;2023-12-20T11:40:35;2.67;;;1.67;;
29214;SDS011;16252;49.816;7.964;2023-12-20T11:43:01;3.78;;;1.52;;
29214;SDS011;16252;49.816;7.964;2023-12-20T11:45:26;2.75;;;1.70;;
29214;SDS011;16252;49.816;7.964;2023-12-20T11:47:52;3.78;;;1.70;;
29214;SDS011;16252;49.816;7.964;2023-12-20T11:50:21;5.22;;;2.30;;
29214;SDS011;16252;49.816;7.964;2023-12-20T11:52:48;4.22;;;1.83;;
29214;SDS011;16252;49.816;7.964;2023-12-20T11:55:14;3.28;;;1.70;;
29214;SDS011;16252;49.816;7.964;2023-12-20T11:57:39;7.72;;;2.00;;
29214;SDS011;16252;49.816;7.964;2023-12-20T12:00:05;4.70;;;1.88;;
29214;SDS011;16252;49.816;7.964;2023-12-20T12:02:31;4.70;;;2.20;;
29214;SDS011;16252;49.816;7.964;2023-12-20T12:04:56;7.15;;;1.90;;
29214;SDS011;16252;49.816;7.964;2023-12-20T12:07:23;6.82;;;2.13;;
29214;SDS011;16252;49.816;7.964;2023-12-20T12:09:49;3.80;;;1.92;;
29214;SDS011;16252;49.816;7.964;2023-12-20T12:12:15;6.40;;;2.20;;
29214;SDS011;16252;49.816;7.964;2023-12-20T12:14:40;6.32;;;2.20;;
29214;SDS011;16252;49.816;7.964;2023-12-20T12:17:12;3.55;;;2.13;;
29214;SDS011;16252;49.816;7.964;2023-12-20T12:19:39;6.07;;;2.67;;
29214;SDS011;16252;49.816;7.964;2023-12-20T12:24:40;7.30;;;3.03;;
29214;SDS011;16252;49.816;7.964;2023-12-20T12:27:07;9.13;;;3.22;;
29214;SDS011;16252;49.816;7.964;2023-12-20T12:29:33;6.70;;;2.80;;
29214;SDS011;16252;49.816;7.964;2023-12-20T12:32:05;6.45;;;3.00;;
29214;SDS011;16252;49.816;7.964;2023-12-20T12:34:35;7.80;;;2.78;;
29214;SDS011;16252;49.816;7.964;2023-12-20T12:37:01;6.28;;;2.58;;
29214;SDS011;16252;49.816;7.964;2023-12-20T12:39:27;3.83;;;2.00;;
29214;SDS011;16252;49.816;7.964;2023-12-20T12:41:54;6.30;;;2.67;;
29214;SDS011;16252;49.816;7.964;2023-12-20T12:44:20;6.45;;;2.20;;
29214;SDS011;16252;49.816;7.964;2023-12-20T12:46:47;5.95;;;2.78;;
29214;SDS011;16252;49.816;7.964;2023-12-20T12:49:16;7.28;;;3.00;;
29214;SDS011;16252;49.816;7.964;2023-12-20T12:51:41;8.98;;;3.25;;
29214;SDS011;16252;49.816;7.964;2023-12-20T12:54:07;7.03;;;3.03;;
29214;SDS011;16252;49.816;7.964;2023-12-20T12:56:33;6.20;;;2.85;;
29214;SDS011;16252;49.816;7.964;2023-12-20T12:58:59;6.53;;;2.97;;
29214;SDS011;16252;49.816;7.964;2023-12-20T13:01:24;4.95;;;2.42;;
29214;SDS011;16252;49.816;7.964;2023-12-20T13:03:50;9.07;;;3.92;;
29214;SDS011;16252;49.816;7.964;2023-12-20T13:06:15;8.25;;;2.97;;
29214;SDS011;16252;49.816;7.964;2023-12-20T13:08:40;6.80;;;2.53;;
29214;SDS011;16252;49.816;7.964;2023-12-20T13:11:06;6.93;;;3.15;;
29214;SDS011;16252;49.816;7.964;2023-12-20T13:13:32;5.63;;;2.40;;
29214;SDS011;16252;49.816;7.964;2023-12-20T13:15:57;9.10;;;3.47;;
29214;SDS011;16252;49.816;7.964;2023-12-20T13:18:22;6.90;;;2.67;;
29214;SDS011;16252;49.816;7.964;2023-12-20T13:20:48;5.95;;;2.63;;
29214;SDS011;16252;49.816;7.964;2023-12-20T13:23:14;6.75;;;2.70;;
29214;SDS011;16252;49.816;7.964;2023-12-20T13:25:40;8.05;;;3.08;;
29214;SDS011;16252;49.816;7.964;2023-12-20T13:28:06;6.68;;;3.30;;
29214;SDS011;16252;49.816;7.964;2023-12-20T13:30:31;7.35;;;3.15;;
29214;SDS011;16252;49.816;7.964;2023-12-20T13:32:56;6.32;;;2.40;;
29214;SDS011;16252;49.816;7.964;2023-12-20T13:35:22;5.20;;;2.30;;
29214;SDS011;16252;49.816;7.964;2023-12-20T13:37:47;6.30;;;2.33;;
29214;SDS011;16252;49.816;7.964;2023-12-20T13:40:12;8.93;;;2.50;;
29214;SDS011;16252;49.816;7.964;2023-12-20T13:42:38;5.25;;;2.10;;
29214;SDS011;16252;49.816;7.964;2023-12-20T13:45:04;5.80;;;2.03;;
29214;SDS011;16252;49.816;7.964;2023-12-20T13:47:31;6.85;;;2.28;;
29214;SDS011;16252;49.816;7.964;2023-12-20T13:49:56;6.00;;;1.92;;
29214;SDS011;16252;49.816;7.964;2023-12-20T13:52:22;6.30;;;2.33;;
29214;SDS011;16252;49.816;7.964;2023-12-20T13:54:47;3.95;;;2.15;;
29214;SDS011;16252;49.816;7.964;2023-12-20T13:57:12;6.22;;;1.95;;
29214;SDS011;16252;49.816;7.964;2023-12-20T13:59:38;5.32;;;2.28;;
29214;SDS011;16252;49.816;7.964;2023-12-20T14:02:03;4.70;;;2.00;;
29214;SDS011;16252;49.816;7.964;2023-12-20T14:04:28;2.95;;;1.60;;
29214;SDS011;16252;49.816;7.964;2023-12-20T14:06:54;4.35;;;1.73;;
29214;SDS011;16252;49.816;7.964;2023-12-20T14:09:19;3.40;;;2.22;;
29214;SDS011;16252;49.816;7.964;2023-12-20T14:11:44;4.78;;;2.08;;
29214;SDS011;16252;49.816;7.964;2023-12-20T14:14:10;5.80;;;2.80;;
29214;SDS011;16252;49.816;7.964;2023-12-20T14:16:36;7.40;;;2.50;;
29214;SDS011;16252;49.816;7.964;2023-12-20T14:19:01;8.32;;;3.38;;
29214;SDS011;16252;49.816;7.964;2023-12-20T14:21:28;9.43;;;3.38;;
29214;SDS011;16252;49.816;7.964;2023-12-20T14:23:53;16.17;;;5.70;;
29214;SDS011;16252;49.816;7.964;2023-12-20T14:26:19;9.18;;;4.28;;
29214;SDS011;16252;49.816;7.964;2023-12-20T14:28:44;12.00;;;6.10;;
29214;SDS011;16252;49.816;7.964;2023-12-20T14:31:09;15.65;;;7.00;;
29214;SDS011;16252;49.816;7.964;2023-12-20T14:33:38;13.68;;;5.95;;
29214;SDS011;16252;49.816;7.964;2023-12-20T14:36:04;9.43;;;4.50;;
29214;SDS011;16252;49.816;7.964;2023-12-20T14:38:33;7.45;;;3.17;;
29214;SDS011;16252;49.816;7.964;2023-12-20T14:41:00;6.72;;;3.30;;
29214;SDS011;16252;49.816;7.964;2023-12-20T14:43:25;7.97;;;3.75;;
29214;SDS011;16252;49.816;7.964;2023-12-20T14:45:51;7.10;;;2.85;;